Boynton Beach, FL (33436)

5:48 PM EDT on July 28, 2015 (GMT -0400)
Princeton Place | | Change Station
CLOSE
Current Station
Personal Weather Station
Location: Boynton Beach, FL
Elevation: 36 ft
Nearby Weather Stations

Elev 36 ft 26.55 °N, 80.12 °W | Updated 5 seconds ago

Mostly Cloudy
Mostly Cloudy
100.0 °F
Feels Like 126 °F
N
8.3
Wind Variable Wind from SE
Gusts 8.3 mph

Today
High -- | Low -- °F
--% Chance of Precip.
Yesterday
High -- | Low -- °F
Precip. -- in
6:43 AM 8:10 PM
Waxing Gibbous, 92% visible
Pressure 29.96 in
Visibility 10.0 miles
Clouds Scattered Clouds 4200 ft
Mostly Cloudy 5500 ft
Mostly Cloudy 20000 ft
Heat Index 126 °F
Dew Point 82 °F
Humidity 57%
Rainfall 0.00 in
Snow Depth Not available.
UV 4 out of 12
Pollen 3.50 out of 12
Air Quality Not available.
Flu Activity Not available.
METAR KPBI 282053Z 18008G16KT 10SM SCT042 BKN055 BKN200 34/23 A2996 RMK AO2 SLP145 T03390228 55015 $

More Conditions Fewer Conditions

Pressure 29.96 in
Visibility 10.0 miles
Clouds Scattered Clouds 4200 ft
Mostly Cloudy 5500 ft
Mostly Cloudy 20000 ft
Heat Index 126 °F
Dew Point 82 °F
Humidity 57%
Rainfall 0.00 in
Snow Depth Not available.
UV 4 out of 12
Pollen 3.50 out of 12
Air Quality Not available.
Flu Activity Not available.
METAR KPBI 282053Z 18008G16KT 10SM SCT042 BKN055 BKN200 34/23 A2996 RMK AO2 SLP145 T03390228 55015 $

More Conditions Fewer Conditions

10-Day Weather Forecast

×

Almanac

Astronomy

Jul. 28, 2015 Rise Set
Actual Time
Civil Twilight
Nautical Twilight
Astronomical Twilight
Moon
Length of Visible Light
Length of Day
Tomorrow will be .
, % of the Moon is Illuminated

Today's Extremes

State Highs State Lows

Community

WunderPhotos

Upload Photos

1,841,948 photos uploaded!

WunderBlogs® & News

Nearby

Air Quality

  Air Quality AQ Index Pollutant
Not available.

Snow Depth

Station Depth Elevation

Earthquake Activity

City Distance Mag. Time & Date
Minimum magnitude displayed is 2.5.

Coastal Water Temperatures

Place Temperature

Stations

Nearby Weather Stations

Station Location Temp. Windchill Dew Point Humidity Wind Precip. Elev Updated Type